createdAt,value
2018-05-25T00:00:24.871Z,64.12
2018-05-25T00:02:52.478Z,64.43
2018-05-25T00:05:20.127Z,63.92
2018-05-25T00:07:47.742Z,63.94
2018-05-25T00:10:15.383Z,63.74
2018-05-25T00:12:43.022Z,64.82
2018-05-25T00:15:10.646Z,63.77
2018-05-25T00:17:38.294Z,63.29
2018-05-25T00:20:05.907Z,63.79
2018-05-25T00:22:33.563Z,63.43
2018-05-25T00:25:01.180Z,63.83
2018-05-25T00:27:28.833Z,63.93
2018-05-25T00:29:57.123Z,64.42
2018-05-25T00:32:24.768Z,63.61
2018-05-25T00:34:52.376Z,64.38
2018-05-25T00:37:20.018Z,64.36
2018-05-25T00:39:47.630Z,63.99
2018-05-25T00:42:15.278Z,64.02
2018-05-25T00:44:42.899Z,64.04
2018-05-25T00:47:10.547Z,63.49
2018-05-25T00:49:38.160Z,63.96
2018-05-25T00:52:05.818Z,64.87
2018-05-25T00:54:33.432Z,63.80
2018-05-25T00:57:01.093Z,64.73
2018-05-25T00:59:28.698Z,64.97
2018-05-25T01:01:56.347Z,64.96
2018-05-25T01:04:23.961Z,64.66
2018-05-25T01:06:51.625Z,64.10
2018-05-25T01:09:19.244Z,64.71
2018-05-25T01:11:46.903Z,64.98
2018-05-25T01:14:14.519Z,65.16
2018-05-25T01:16:42.174Z,64.92
2018-05-25T01:19:09.790Z,64.95
2018-05-25T01:21:37.448Z,65.25
2018-05-25T01:24:05.062Z,65.23
2018-05-25T01:26:32.727Z,65.26
2018-05-25T01:29:00.447Z,65.40
2018-05-25T01:31:28.103Z,65.49
2018-05-25T01:33:55.803Z,65.86
2018-05-25T01:36:23.454Z,65.36
2018-05-25T01:38:51.070Z,64.69
2018-05-25T01:41:18.730Z,64.90
2018-05-25T01:43:46.355Z,65.17
2018-05-25T01:46:14.014Z,65.31
2018-05-25T01:48:41.622Z,65.50
2018-05-25T01:51:09.266Z,65.57
2018-05-25T01:53:36.879Z,65.82
2018-05-25T01:56:04.540Z,65.49
2018-05-25T01:58:32.158Z,65.23
2018-05-25T02:00:59.819Z,65.27
2018-05-25T02:03:27.435Z,65.46
2018-05-25T02:05:55.091Z,65.33
2018-05-25T02:08:22.708Z,64.76
2018-05-25T02:10:50.322Z,65.53
2018-05-25T02:13:17.980Z,65.70
2018-05-25T02:15:45.673Z,65.82
2018-05-25T02:18:13.331Z,65.56
2018-05-25T02:20:40.947Z,65.54
2018-05-25T02:23:08.619Z,65.57
2018-05-25T02:25:36.239Z,65.74
2018-05-25T02:28:03.894Z,65.52
2018-05-25T02:30:31.512Z,65.58
2018-05-25T02:32:59.319Z,65.41
2018-05-25T02:35:26.931Z,65.97
2018-05-25T02:37:54.591Z,65.71
2018-05-25T02:40:22.347Z,66.15
2018-05-25T02:42:49.995Z,65.56
2018-05-25T02:45:17.615Z,65.96
2018-05-25T02:47:45.279Z,65.74
2018-05-25T02:50:12.895Z,66.05
2018-05-25T02:52:40.556Z,66.45
2018-05-25T02:55:08.175Z,65.95
2018-05-25T02:57:35.833Z,66.52
2018-05-25T03:00:03.522Z,66.16
2018-05-25T03:02:31.175Z,66.46
2018-05-25T03:04:58.791Z,66.15
2018-05-25T03:07:26.442Z,66.42
2018-05-25T03:09:54.123Z,66.63
2018-05-25T03:12:21.776Z,66.65
2018-05-25T03:14:49.394Z,66.47
2018-05-25T03:17:17.054Z,66.64
2018-05-25T03:19:44.680Z,66.50
2018-05-25T03:22:12.341Z,66.41
2018-05-25T03:24:39.963Z,66.33
2018-05-25T03:27:07.623Z,66.95
2018-05-25T03:29:35.232Z,66.89
2018-05-25T03:32:02.886Z,67.64
2018-05-25T03:34:30.500Z,67.23
2018-05-25T03:36:58.154Z,66.96
2018-05-25T03:39:25.766Z,66.98
2018-05-25T03:41:53.418Z,67.23
2018-05-25T03:44:21.035Z,67.31
2018-05-25T03:46:48.703Z,67.39
2018-05-25T03:49:16.311Z,67.38
2018-05-25T03:51:43.969Z,67.77
2018-05-25T03:54:11.602Z,68.93
2018-05-25T03:56:39.252Z,68.93
2018-05-25T03:59:18.780Z,68.59
2018-05-25T04:01:58.370Z,70.85
2018-05-25T04:04:25.988Z,69.57
2018-05-25T04:06:53.644Z,69.80
2018-05-25T04:09:21.263Z,69.73
2018-05-25T04:11:48.928Z,70.86
2018-05-25T04:14:16.550Z,71.11
2018-05-25T04:16:44.212Z,70.58
2018-05-25T04:19:11.833Z,69.73
2018-05-25T04:21:39.491Z,69.35
2018-05-25T04:24:07.102Z,69.11
2018-05-25T04:26:34.726Z,69.03
2018-05-25T04:29:02.383Z,69.00
2018-05-25T04:31:29.996Z,69.18
2018-05-25T04:33:57.651Z,68.78
2018-05-25T04:36:25.270Z,68.98
2018-05-25T04:38:52.926Z,69.89
2018-05-25T04:41:20.534Z,70.19
2018-05-25T04:43:48.187Z,71.70
2018-05-25T04:46:15.799Z,71.84
2018-05-25T04:48:43.459Z,71.35
2018-05-25T04:51:11.079Z,70.95
2018-05-25T04:53:38.802Z,70.60
2018-05-25T04:56:06.388Z,69.66
2018-05-25T04:58:34.048Z,70.74
2018-05-25T05:01:01.666Z,71.09
2018-05-25T05:03:29.323Z,71.09
2018-05-25T05:05:56.936Z,70.62
2018-05-25T05:08:24.599Z,71.12
2018-05-25T05:10:52.211Z,71.32
2018-05-25T05:13:20.027Z,70.80
2018-05-25T05:15:47.649Z,70.65
2018-05-25T05:18:15.299Z,70.28
2018-05-25T05:20:42.907Z,70.02
2018-05-25T05:23:10.563Z,70.63
2018-05-25T05:25:38.184Z,70.40
2018-05-25T05:28:05.844Z,71.28
2018-05-25T05:30:33.548Z,72.38
2018-05-25T05:33:01.203Z,71.33
2018-05-25T05:35:28.830Z,70.35
2018-05-25T05:37:56.492Z,69.54
2018-05-25T05:40:24.103Z,69.13
2018-05-25T05:42:51.755Z,68.61
2018-05-25T05:45:19.366Z,68.07
2018-05-25T05:47:47.023Z,68.25
2018-05-25T05:50:14.642Z,68.00
2018-05-25T05:52:42.294Z,67.62
2018-05-25T05:55:09.907Z,67.95
2018-05-25T05:57:37.563Z,68.29
2018-05-25T06:00:05.188Z,68.56
2018-05-25T06:02:32.851Z,68.76
2018-05-25T06:05:00.466Z,68.11
2018-05-25T06:07:28.130Z,68.09
2018-05-25T06:09:55.750Z,67.26
2018-05-25T06:12:23.433Z,66.70
2018-05-25T06:14:51.051Z,66.40
2018-05-25T06:17:18.711Z,66.71
2018-05-25T06:19:46.331Z,65.86
2018-05-25T06:22:13.988Z,65.56
2018-05-25T06:24:41.599Z,64.79
2018-05-25T06:27:09.258Z,66.44
2018-05-25T06:29:36.870Z,65.67
2018-05-25T06:32:04.498Z,65.75
2018-05-25T06:34:32.469Z,64.88
2018-05-25T06:37:00.334Z,65.33
2018-05-25T06:39:28.095Z,65.06
2018-05-25T06:41:55.817Z,66.27
2018-05-25T06:44:23.781Z,67.92
2018-05-25T06:46:51.598Z,67.75
2018-05-25T06:49:19.416Z,67.32
2018-05-25T06:51:47.108Z,65.94
2018-05-25T06:54:14.890Z,68.04
2018-05-25T06:56:42.616Z,67.58
2018-05-25T06:59:10.422Z,65.36
2018-05-25T07:01:38.128Z,67.22
2018-05-25T07:04:06.001Z,67.79
2018-05-25T07:06:33.815Z,67.53
2018-05-25T07:09:01.627Z,66.57
2018-05-25T07:11:29.447Z,66.03
2018-05-25T07:13:57.315Z,64.96
2018-05-25T07:16:25.079Z,63.76
2018-05-25T07:18:52.735Z,62.54
2018-05-25T07:21:20.350Z,64.59
2018-05-25T07:23:48.011Z,66.17
2018-05-25T07:26:15.624Z,64.30
2018-05-25T07:28:43.290Z,64.45
2018-05-25T07:31:11.004Z,62.54
2018-05-25T07:33:38.821Z,57.02
2018-05-25T07:36:06.582Z,52.88
2018-05-25T07:38:34.448Z,56.37
2018-05-25T07:41:02.172Z,58.73
2018-05-25T07:43:29.980Z,54.71
2018-05-25T07:45:57.705Z,51.68
2018-05-25T07:48:25.471Z,54.07
2018-05-25T07:50:53.269Z,53.59
2018-05-25T07:53:21.082Z,50.69
2018-05-25T07:55:48.900Z,51.58
2018-05-25T07:58:16.717Z,53.58
2018-05-25T08:00:44.533Z,49.15
2018-05-25T08:03:12.400Z,50.41
2018-05-25T08:05:40.117Z,49.04
2018-05-25T08:08:07.929Z,50.02
2018-05-25T08:10:35.695Z,50.63
2018-05-25T08:13:03.563Z,50.28
2018-05-25T08:15:31.285Z,49.19
2018-05-25T08:17:59.004Z,50.63
2018-05-25T08:20:26.649Z,51.55
2018-05-25T08:22:54.516Z,52.15
2018-05-25T08:25:22.175Z,54.20
2018-05-25T08:27:49.830Z,52.91
2018-05-25T08:30:17.502Z,53.62
2018-05-25T08:32:45.471Z,54.55
2018-05-25T08:35:13.338Z,53.74
2018-05-25T08:37:41.106Z,54.69
2018-05-25T08:40:08.972Z,53.61
2018-05-25T08:42:36.734Z,54.58
2018-05-25T08:45:04.568Z,52.88
2018-05-25T08:47:32.307Z,50.66
2018-05-25T08:50:00.024Z,51.79
2018-05-25T08:52:27.791Z,51.11
2018-05-25T08:54:55.659Z,50.50
2018-05-25T08:57:23.425Z,51.75
2018-05-25T08:59:51.452Z,50.14
2018-05-25T09:02:19.158Z,53.50
2018-05-25T09:04:47.025Z,50.33
2018-05-25T09:07:14.686Z,48.66
2018-05-25T09:09:42.355Z,51.74
2018-05-25T09:12:10.007Z,51.50
2018-05-25T09:14:37.772Z,51.11
2018-05-25T09:17:05.484Z,54.18
2018-05-25T09:19:33.203Z,52.71
2018-05-25T09:22:00.967Z,51.53
2018-05-25T09:24:28.833Z,50.49
2018-05-25T09:26:56.597Z,51.87
2018-05-25T09:29:24.465Z,51.09
2018-05-25T09:31:52.186Z,48.65
2018-05-25T09:34:19.993Z,51.03
2018-05-25T09:36:47.721Z,50.38
2018-05-25T09:39:15.523Z,50.33
2018-05-25T09:41:43.180Z,48.77
2018-05-25T09:44:11.052Z,50.17
2018-05-25T09:46:38.817Z,48.94
2018-05-25T09:49:06.683Z,46.63
2018-05-25T09:51:34.424Z,47.59
2018-05-25T09:54:02.165Z,48.99
2018-05-25T09:56:29.978Z,49.07
2018-05-25T09:58:57.849Z,48.35
2018-05-25T10:01:25.712Z,49.29
2018-05-25T10:03:53.577Z,48.54
2018-05-25T10:06:21.342Z,48.08
2018-05-25T10:08:49.209Z,45.66
2018-05-25T10:11:16.968Z,43.91
2018-05-25T10:13:44.631Z,42.21
2018-05-25T10:16:12.255Z,45.10
2018-05-25T10:18:39.906Z,42.81
2018-05-25T10:21:07.537Z,43.92
2018-05-25T10:23:35.255Z,46.13
2018-05-25T10:26:02.878Z,46.87
2018-05-25T10:28:30.527Z,42.60
2018-05-25T10:30:58.176Z,39.87
2018-05-25T10:33:25.839Z,44.24
2018-05-25T10:35:53.455Z,42.61
2018-05-25T10:38:21.118Z,43.52
2018-05-25T10:40:48.737Z,40.43
2018-05-25T10:43:16.491Z,38.53
2018-05-25T10:45:44.116Z,39.22
2018-05-25T10:48:11.806Z,40.45
2018-05-25T10:50:39.594Z,41.90
2018-05-25T10:53:07.210Z,42.54
2018-05-25T10:55:34.863Z,43.78
2018-05-25T10:58:02.470Z,45.39
2018-05-25T11:00:30.131Z,42.64
2018-05-25T11:02:57.739Z,41.36
2018-05-25T11:05:25.543Z,37.97
2018-05-25T11:07:53.314Z,40.20
2018-05-25T11:10:20.971Z,39.79
2018-05-25T11:12:48.587Z,40.33
2018-05-25T11:15:16.247Z,37.47
2018-05-25T11:17:43.853Z,38.64
2018-05-25T11:20:11.509Z,36.92
2018-05-25T11:22:39.127Z,39.63
2018-05-25T11:25:06.836Z,35.99
2018-05-25T11:27:34.566Z,37.40
2018-05-25T11:30:02.470Z,38.67
2018-05-25T11:32:30.127Z,40.56
2018-05-25T11:34:57.998Z,37.73
2018-05-25T11:37:25.712Z,40.24
2018-05-25T11:39:53.456Z,40.25
2018-05-25T11:42:21.189Z,38.71
2018-05-25T11:44:49.056Z,40.23
2018-05-25T11:47:16.820Z,40.81
2018-05-25T11:49:44.479Z,39.56
2018-05-25T11:52:12.212Z,40.53
2018-05-25T11:54:39.879Z,40.50
2018-05-25T11:57:07.494Z,38.47
2018-05-25T11:59:35.146Z,38.76
2018-05-25T12:02:02.759Z,39.05
2018-05-25T12:04:30.420Z,38.76
2018-05-25T12:06:58.035Z,38.99
2018-05-25T12:09:25.690Z,37.81
2018-05-25T12:11:53.318Z,40.39
2018-05-25T12:14:20.977Z,39.16
2018-05-25T12:16:48.601Z,38.90
2018-05-25T12:19:16.263Z,37.76
2018-05-25T12:21:43.877Z,39.44
2018-05-25T12:24:11.534Z,38.10
2018-05-25T12:26:39.139Z,40.74
2018-05-25T12:29:06.803Z,39.09
2018-05-25T12:31:34.423Z,38.78
2018-05-25T12:34:02.081Z,40.38
2018-05-25T12:36:29.699Z,40.84
2018-05-25T12:38:57.411Z,39.98
2018-05-25T12:41:25.015Z,42.41
2018-05-25T12:43:52.675Z,41.38
2018-05-25T12:46:20.291Z,38.70
2018-05-25T12:48:47.956Z,38.87
2018-05-25T12:51:15.575Z,39.77
2018-05-25T12:53:43.238Z,39.10
2018-05-25T12:56:10.849Z,37.11
2018-05-25T12:58:38.462Z,38.90
2018-05-25T13:01:06.105Z,38.71
2018-05-25T13:03:33.728Z,37.60
2018-05-25T13:06:01.388Z,37.99
2018-05-25T13:08:28.991Z,39.02
2018-05-25T13:10:56.643Z,38.72
2018-05-25T13:13:24.242Z,38.42
2018-05-25T13:15:51.894Z,38.32
2018-05-25T13:18:19.502Z,39.59
2018-05-25T13:20:47.151Z,38.03
2018-05-25T13:23:14.760Z,37.91
2018-05-25T13:25:42.411Z,39.66
2018-05-25T13:28:10.018Z,38.23
2018-05-25T13:30:37.663Z,38.20
2018-05-25T13:33:05.275Z,37.41
2018-05-25T13:35:32.922Z,35.92
2018-05-25T13:38:00.526Z,36.80
2018-05-25T13:40:28.171Z,35.45
2018-05-25T13:42:55.782Z,36.93
2018-05-25T13:45:23.427Z,38.16
2018-05-25T13:47:51.031Z,35.76
2018-05-25T13:50:18.683Z,36.59
2018-05-25T13:52:46.292Z,35.13
2018-05-25T13:55:14.840Z,32.23
2018-05-25T13:57:42.450Z,30.88
2018-05-25T14:00:10.094Z,34.20
2018-05-25T14:02:37.693Z,32.33
2018-05-25T14:05:05.334Z,32.96
2018-05-25T14:07:32.940Z,32.17
2018-05-25T14:10:00.588Z,34.04
2018-05-25T14:12:28.196Z,31.28
2018-05-25T14:14:55.839Z,29.73
2018-05-25T14:17:23.441Z,29.96
2018-05-25T14:19:51.102Z,27.47
2018-05-25T14:22:18.719Z,28.59
2018-05-25T14:24:46.368Z,33.01
2018-05-25T14:27:13.974Z,33.44
2018-05-25T14:29:41.632Z,31.18
2018-05-25T14:32:09.240Z,32.15
2018-05-25T14:34:36.887Z,32.77
2018-05-25T14:37:04.494Z,32.11
2018-05-25T14:39:32.143Z,30.56
2018-05-25T14:41:59.742Z,31.57
2018-05-25T14:44:27.395Z,29.98
2018-05-25T14:46:55.000Z,29.47
2018-05-25T14:49:22.651Z,29.58
2018-05-25T14:51:50.259Z,32.38
2018-05-25T14:54:17.901Z,26.60
2018-05-25T14:56:45.552Z,24.41
2018-05-25T14:59:13.160Z,25.02
2018-05-25T15:01:40.802Z,26.14
2018-05-25T15:04:08.411Z,26.86
2018-05-25T15:06:36.150Z,26.52
2018-05-25T15:09:03.855Z,29.99
2018-05-25T15:11:31.499Z,28.86
2018-05-25T15:13:59.113Z,29.55
2018-05-25T15:16:26.771Z,29.13
2018-05-25T15:18:54.384Z,27.05
2018-05-25T15:21:22.066Z,30.16
2018-05-25T15:23:49.680Z,30.81
2018-05-25T15:26:17.331Z,29.33
2018-05-25T15:28:44.934Z,28.95
2018-05-25T15:31:13.355Z,28.79
2018-05-25T15:33:40.975Z,27.81
2018-05-25T15:36:08.642Z,27.16
2018-05-25T15:38:36.248Z,29.66
2018-05-25T15:41:03.904Z,30.88
2018-05-25T15:43:31.572Z,31.53
2018-05-25T15:45:59.225Z,30.17
2018-05-25T15:48:26.836Z,32.32
2018-05-25T15:50:54.479Z,31.71
2018-05-25T15:53:22.089Z,30.35
2018-05-25T15:55:49.743Z,31.87
2018-05-25T15:58:17.356Z,29.58
2018-05-25T16:00:45.002Z,29.46
2018-05-25T16:03:12.608Z,30.95
2018-05-25T16:05:40.258Z,31.10
2018-05-25T16:08:07.865Z,31.42
2018-05-25T16:10:36.334Z,30.52
2018-05-25T16:13:03.938Z,29.53
2018-05-25T16:15:31.584Z,29.89
2018-05-25T16:17:59.195Z,28.45
2018-05-25T16:20:26.844Z,31.78
2018-05-25T16:22:54.451Z,32.05
2018-05-25T16:25:22.103Z,31.68
2018-05-25T16:27:49.718Z,31.93
2018-05-25T16:30:17.367Z,30.32
2018-05-25T16:32:44.978Z,30.83
2018-05-25T16:35:12.623Z,29.66
2018-05-25T16:37:40.232Z,29.16
2018-05-25T16:40:07.913Z,30.71
2018-05-25T16:42:35.527Z,32.63
2018-05-25T16:45:03.175Z,33.51
2018-05-25T16:47:30.780Z,34.56
2018-05-25T16:49:58.423Z,32.60
2018-05-25T16:52:26.026Z,34.74
2018-05-25T16:54:53.688Z,31.97
2018-05-25T16:57:21.300Z,32.32
2018-05-25T16:59:48.942Z,32.06
2018-05-25T17:02:16.553Z,33.70
2018-05-25T17:04:44.186Z,33.07
2018-05-25T17:07:11.840Z,31.77
2018-05-25T17:09:39.448Z,31.49
2018-05-25T17:12:07.095Z,32.18
2018-05-25T17:14:34.699Z,30.94
2018-05-25T17:17:02.346Z,32.29
2018-05-25T17:19:29.963Z,32.45
2018-05-25T17:21:57.606Z,32.96
2018-05-25T17:24:25.248Z,31.31
2018-05-25T17:26:52.898Z,31.60
2018-05-25T17:29:20.506Z,33.96
2018-05-25T17:31:48.161Z,33.13
2018-05-25T17:34:15.768Z,32.36
2018-05-25T17:36:43.415Z,33.50
2018-05-25T17:39:11.024Z,33.23
2018-05-25T17:41:38.687Z,34.91
2018-05-25T17:44:06.302Z,32.66
2018-05-25T17:46:33.982Z,32.36
2018-05-25T17:49:01.593Z,32.76
2018-05-25T17:51:29.242Z,33.00
2018-05-25T17:53:56.847Z,33.09
2018-05-25T17:56:24.491Z,32.98
2018-05-25T17:58:52.100Z,35.29
2018-05-25T18:01:19.741Z,35.15
2018-05-25T18:03:47.355Z,36.15
2018-05-25T18:06:15.012Z,37.40
2018-05-25T18:08:42.615Z,37.71
2018-05-25T18:11:10.271Z,38.75
2018-05-25T18:13:38.032Z,38.41
2018-05-25T18:16:05.695Z,40.45
2018-05-25T18:18:33.415Z,40.10
2018-05-25T18:21:01.124Z,41.50
2018-05-25T18:23:28.887Z,41.47
2018-05-25T18:25:56.753Z,41.63
2018-05-25T18:28:24.517Z,42.02
2018-05-25T18:30:52.388Z,43.42
2018-05-25T18:33:20.092Z,43.61
2018-05-25T18:35:47.913Z,43.44
2018-05-25T18:38:15.630Z,42.91
2018-05-25T18:40:43.442Z,42.66
2018-05-25T18:43:11.159Z,42.60
2018-05-25T18:45:38.971Z,42.93
2018-05-25T18:48:06.700Z,43.05
2018-05-25T18:50:34.398Z,43.60
2018-05-25T18:53:02.163Z,43.38
2018-05-25T18:55:29.927Z,44.09
2018-05-25T18:57:57.636Z,44.26
2018-05-25T19:00:25.455Z,44.75
2018-05-25T19:02:53.119Z,44.82
2018-05-25T19:05:20.881Z,44.75
2018-05-25T19:07:48.609Z,45.34
2018-05-25T19:10:16.412Z,44.97
2018-05-25T19:12:44.068Z,45.90
2018-05-25T19:15:11.737Z,45.48
2018-05-25T19:17:39.401Z,45.37
2018-05-25T19:20:07.162Z,45.15
2018-05-25T19:22:34.927Z,45.46
2018-05-25T19:25:02.694Z,45.59
2018-05-25T19:27:30.456Z,45.36
2018-05-25T19:29:58.119Z,44.83
2018-05-25T19:32:25.922Z,45.14
2018-05-25T19:34:53.648Z,45.78
2018-05-25T19:37:21.359Z,46.77
2018-05-25T19:39:49.069Z,45.91
2018-05-25T19:42:16.841Z,46.54
2018-05-25T19:44:44.604Z,46.77
2018-05-25T19:47:12.369Z,47.20
2018-05-25T19:49:40.098Z,47.66
2018-05-25T19:52:07.899Z,47.78
2018-05-25T19:54:35.662Z,48.08
2018-05-25T19:57:03.530Z,48.33
2018-05-25T19:59:31.293Z,48.47
2018-05-25T20:01:59.162Z,48.26
2018-05-25T20:04:26.821Z,48.19
2018-05-25T20:06:54.586Z,48.30
2018-05-25T20:09:22.304Z,48.35
2018-05-25T20:11:50.116Z,48.65
2018-05-25T20:14:17.778Z,48.24
2018-05-25T20:16:45.481Z,48.48
2018-05-25T20:19:13.297Z,48.50
2018-05-25T20:21:41.014Z,48.26
2018-05-25T20:24:09.095Z,47.62
2018-05-25T20:26:36.911Z,47.49
2018-05-25T20:29:05.491Z,46.96
2018-05-25T20:31:33.256Z,46.91
2018-05-25T20:34:01.024Z,47.67
2018-05-25T20:36:28.887Z,46.79
2018-05-25T20:38:56.608Z,48.01
2018-05-25T20:41:24.416Z,48.13
2018-05-25T20:43:52.181Z,47.20
2018-05-25T20:46:19.845Z,46.63
2018-05-25T20:48:47.632Z,46.00
2018-05-25T20:51:15.375Z,47.27
2018-05-25T20:53:43.085Z,46.99
2018-05-25T20:56:10.901Z,47.07
2018-05-25T20:58:38.665Z,48.18
2018-05-25T21:01:06.386Z,48.43
2018-05-25T21:03:34.194Z,48.59
2018-05-25T21:06:01.922Z,49.00
2018-05-25T21:08:29.725Z,48.96
2018-05-25T21:10:57.592Z,49.20
2018-05-25T21:13:25.355Z,48.79
2018-05-25T21:15:53.119Z,48.34
2018-05-25T21:18:20.887Z,48.50
2018-05-25T21:20:48.652Z,48.75
2018-05-25T21:23:16.470Z,49.85
2018-05-25T21:25:44.281Z,50.29
2018-05-25T21:28:12.104Z,50.93
2018-05-25T21:30:39.911Z,51.29
2018-05-25T21:33:07.677Z,51.51
2018-05-25T21:35:35.402Z,51.59
2018-05-25T21:38:03.118Z,50.44
2018-05-25T21:40:30.765Z,51.70
2018-05-25T21:42:58.531Z,52.07
2018-05-25T21:45:26.192Z,51.45
2018-05-25T21:47:54.061Z,51.78
2018-05-25T21:50:21.785Z,50.41
2018-05-25T21:52:49.587Z,51.95
2018-05-25T21:55:17.313Z,53.07
2018-05-25T21:57:45.058Z,52.97
2018-05-25T22:00:12.786Z,52.32
2018-05-25T22:02:40.649Z,53.30
2018-05-25T22:05:08.410Z,52.56
2018-05-25T22:07:36.175Z,53.56
2018-05-25T22:10:03.944Z,52.76
2018-05-25T22:12:31.806Z,51.98
2018-05-25T22:14:59.523Z,53.47
2018-05-25T22:17:27.336Z,52.15
2018-05-25T22:19:54.997Z,50.99
2018-05-25T22:22:22.729Z,50.76
2018-05-25T22:24:50.526Z,52.33
2018-05-25T22:27:18.291Z,52.99
2018-05-25T22:29:46.000Z,53.35
2018-05-25T22:32:13.817Z,53.31
2018-05-25T22:34:41.584Z,53.75
2018-05-25T22:37:09.247Z,53.51
2018-05-25T22:39:37.071Z,53.19
2018-05-25T22:42:04.334Z,53.05
2018-05-25T22:44:43.906Z,53.16
2018-05-25T22:47:23.652Z,53.45
2018-05-25T22:50:04.116Z,53.42
2018-05-25T22:52:36.900Z,52.83
2018-05-25T22:55:04.654Z,53.11
2018-05-25T22:57:32.323Z,52.69
2018-05-25T23:00:00.024Z,52.68
2018-05-25T23:02:27.841Z,52.53
2018-05-25T23:04:55.558Z,52.88
2018-05-25T23:07:23.277Z,52.63
2018-05-25T23:09:50.992Z,52.99
2018-05-25T23:12:18.811Z,53.59
2018-05-25T23:14:46.525Z,54.05
2018-05-25T23:17:14.234Z,53.43
2018-05-25T23:19:41.896Z,53.31
2018-05-25T23:22:09.662Z,54.39
2018-05-25T23:24:37.322Z,54.75
2018-05-25T23:27:05.088Z,55.09
2018-05-25T23:29:32.828Z,55.08
2018-05-25T23:32:00.719Z,55.35
2018-05-25T23:34:28.437Z,56.21
2018-05-25T23:36:56.147Z,55.76
2018-05-25T23:39:23.972Z,56.92
2018-05-25T23:41:51.673Z,57.25
2018-05-25T23:44:19.380Z,57.66
2018-05-25T23:46:47.100Z,57.59
2018-05-25T23:49:14.867Z,56.98
2018-05-25T23:51:42.630Z,57.27
2018-05-25T23:54:10.348Z,57.59
2018-05-25T23:56:38.058Z,57.58
2018-05-25T23:59:05.782Z,57.93
